Time;durP1;ratioP1;P1;durP2;ratioP2;P2;SDS_P1;SDS_P2;PMS_P1;PMS_P2;Temp;Humidity;BMP_temperature;BMP_pressure;BME280_temperature;BME280_humidity;BME280_pressure;Samples;Min_cycle;Max_cycle;Signal;HPM_P1;HPM_P2
2022/07/18 00:02:05;;;;;;;3.85;3.25;;;;;;;;;;5076137;28;20434;-69
2022/07/18 00:04:30;;;;;;;3.85;3.40;;;;;;;;;;5076178;28;20103;-69
2022/07/18 00:06:56;;;;;;;4.85;3.45;;;;;;;;;;5058097;28;20031;-69
2022/07/18 00:09:23;;;;;;;3.80;3.50;;;;;;;;;;5076027;28;20050;-69
2022/07/18 00:11:49;;;;;;;4.80;3.40;;;;;;;;;;5076104;28;20033;-69
2022/07/18 00:14:14;;;;;;;4.03;3.33;;;;;;;;;;5075944;28;20103;-70
2022/07/18 00:16:40;;;;;;;3.25;2.95;;;;;;;;;;5058270;28;20021;-69
2022/07/18 00:19:06;;;;;;;3.22;2.88;;;;;;;;;;5076066;28;20024;-71
2022/07/18 00:21:32;;;;;;;4.68;2.92;;;;;;;;;;5057814;28;20043;-71
2022/07/18 00:23:57;;;;;;;3.33;2.55;;;;;;;;;;5057847;28;20020;-71
2022/07/18 00:26:23;;;;;;;5.60;2.90;;;;;;;;;;5075867;28;20060;-71
2022/07/18 00:28:48;;;;;;;4.53;2.72;;;;;;;;;;5041076;28;20111;-71
2022/07/18 00:31:15;;;;;;;4.20;3.15;;;;;;;;;;5057105;28;20020;-71
2022/07/18 00:33:40;;;;;;;3.72;2.95;;;;;;;;;;5057114;28;20019;-71
2022/07/18 00:36:06;;;;;;;5.22;3.20;;;;;;;;;;5075668;28;20029;-71
2022/07/18 00:38:31;;;;;;;3.22;2.92;;;;;;;;;;5075795;28;20027;-73
2022/07/18 00:40:58;;;;;;;3.30;3.00;;;;;;;;;;5075383;28;20388;-73
2022/07/18 00:43:23;;;;;;;4.03;2.90;;;;;;;;;;5075747;28;20123;-71
2022/07/18 00:45:49;;;;;;;5.68;3.63;;;;;;;;;;5075469;28;20480;-72
2022/07/18 00:48:15;;;;;;;5.65;3.30;;;;;;;;;;5075376;28;20025;-71
2022/07/18 00:50:42;;;;;;;4.22;3.35;;;;;;;;;;5057317;28;20038;-71
2022/07/18 00:53:07;;;;;;;4.00;3.08;;;;;;;;;;5057218;28;20028;-71
2022/07/18 00:55:36;;;;;;;3.95;3.22;;;;;;;;;;5075143;28;20040;-71
2022/07/18 00:58:02;;;;;;;3.80;3.38;;;;;;;;;;5075160;28;20115;-73
2022/07/18 01:03:11;;;;;;;4.28;3.35;;;;;;;;;;5075183;28;20033;-72
2022/07/18 01:05:36;;;;;;;5.60;3.55;;;;;;;;;;5040859;28;20544;-71
2022/07/18 01:08:02;;;;;;;4.13;3.25;;;;;;;;;;5074914;28;20025;-71
2022/07/18 01:10:27;;;;;;;3.40;3.00;;;;;;;;;;5075152;28;20051;-71
2022/07/18 01:12:53;;;;;;;3.13;2.85;;;;;;;;;;5074837;28;20028;-71
2022/07/18 01:15:18;;;;;;;5.38;3.13;;;;;;;;;;5074771;28;20017;-71
2022/07/18 01:17:44;;;;;;;5.13;2.88;;;;;;;;;;5074756;28;20522;-70
2022/07/18 01:20:09;;;;;;;3.10;2.85;;;;;;;;;;5074564;28;20526;-69
2022/07/18 01:22:35;;;;;;;3.85;2.83;;;;;;;;;;5074956;28;20052;-69
2022/07/18 01:25:00;;;;;;;3.08;2.13;;;;;;;;;;5056795;28;20028;-70
2022/07/18 01:27:26;;;;;;;3.05;2.15;;;;;;;;;;5074707;28;20052;-70
2022/07/18 01:29:52;;;;;;;3.55;2.20;;;;;;;;;;5074628;28;20035;-70
2022/07/18 01:32:18;;;;;;;5.20;2.40;;;;;;;;;;5074570;28;20464;-70
2022/07/18 01:34:45;;;;;;;3.47;1.88;;;;;;;;;;5074680;28;20027;-71
2022/07/18 01:37:10;;;;;;;3.22;1.80;;;;;;;;;;5074297;28;20090;-71
2022/07/18 01:39:36;;;;;;;2.50;2.08;;;;;;;;;;5074240;28;20024;-71
2022/07/18 01:42:03;;;;;;;5.50;1.88;;;;;;;;;;5074211;28;20044;-71
2022/07/18 01:44:29;;;;;;;3.60;2.20;;;;;;;;;;5074050;28;20025;-69
2022/07/18 01:46:54;;;;;;;4.15;2.40;;;;;;;;;;5074191;28;20529;-69
2022/07/18 01:49:19;;;;;;;3.65;2.00;;;;;;;;;;5074448;28;20028;-69
2022/07/18 01:51:48;;;;;;;2.20;2.00;;;;;;;;;;5074051;28;20440;-69
2022/07/18 01:54:14;;;;;;;2.53;2.17;;;;;;;;;;5074190;28;20025;-69
2022/07/18 01:56:39;;;;;;;3.45;2.08;;;;;;;;;;5056060;28;20020;-69
2022/07/18 01:59:05;;;;;;;2.42;2.22;;;;;;;;;;5074303;28;20021;-69
2022/07/18 02:01:30;;;;;;;3.05;2.75;;;;;;;;;;5074104;28;20028;-69
2022/07/18 02:03:56;;;;;;;4.05;2.47;;;;;;;;;;5074561;28;20033;-70
2022/07/18 02:06:21;;;;;;;3.80;2.63;;;;;;;;;;5055918;28;20033;-70
2022/07/18 02:08:46;;;;;;;4.25;2.85;;;;;;;;;;5056785;28;20020;-70
2022/07/18 02:11:12;;;;;;;3.60;2.35;;;;;;;;;;5073866;28;20460;-70
2022/07/18 02:13:38;;;;;;;2.83;2.53;;;;;;;;;;5073979;28;20514;-70
2022/07/18 02:16:03;;;;;;;2.90;2.53;;;;;;;;;;5073882;28;20031;-69
2022/07/18 02:18:32;;;;;;;2.72;2.53;;;;;;;;;;5074285;28;20024;-70
2022/07/18 02:20:58;;;;;;;2.55;2.35;;;;;;;;;;5073663;28;20029;-70
2022/07/18 02:23:23;;;;;;;3.20;2.17;;;;;;;;;;5073525;28;20369;-70
2022/07/18 02:25:48;;;;;;;2.58;2.38;;;;;;;;;;5073743;28;20025;-70
2022/07/18 02:28:14;;;;;;;2.40;2.13;;;;;;;;;;5055936;28;20028;-70
2022/07/18 02:30:39;;;;;;;4.60;2.28;;;;;;;;;;5074162;28;20028;-69
2022/07/18 02:33:05;;;;;;;4.68;2.38;;;;;;;;;;5056701;28;20059;-69
2022/07/18 02:35:31;;;;;;;3.85;2.35;;;;;;;;;;5073521;28;20503;-69
2022/07/18 02:37:56;;;;;;;4.25;2.78;;;;;;;;;;5073610;28;20021;-69
2022/07/18 02:40:22;;;;;;;3.58;2.58;;;;;;;;;;5073385;28;20104;-70
2022/07/18 02:42:47;;;;;;;3.97;2.83;;;;;;;;;;5073464;28;20097;-69
2022/07/18 02:45:13;;;;;;;3.58;2.90;;;;;;;;;;5073714;28;20027;-69
2022/07/18 02:47:38;;;;;;;2.55;2.35;;;;;;;;;;5073629;28;20025;-70
2022/07/18 02:50:04;;;;;;;2.47;2.28;;;;;;;;;;5073437;28;20104;-70
2022/07/18 02:52:29;;;;;;;3.97;2.85;;;;;;;;;;5073661;28;20449;-70
2022/07/18 02:54:56;;;;;;;3.53;2.70;;;;;;;;;;5056067;28;20029;-70
2022/07/18 02:57:22;;;;;;;3.90;2.80;;;;;;;;;;5077491;28;20025;-70
2022/07/18 02:59:47;;;;;;;2.83;2.53;;;;;;;;;;5077277;28;20039;-70
2022/07/18 03:02:12;;;;;;;6.65;2.83;;;;;;;;;;5077066;28;20044;-71
2022/07/18 03:04:39;;;;;;;3.58;2.67;;;;;;;;;;5076795;28;20028;-71
2022/07/18 03:07:04;;;;;;;2.67;2.45;;;;;;;;;;5077099;28;20078;-71
2022/07/18 03:09:30;;;;;;;5.97;2.60;;;;;;;;;;5076488;28;20024;-70
2022/07/18 03:11:56;;;;;;;3.00;2.70;;;;;;;;;;5077352;28;20166;-69
2022/07/18 03:14:21;;;;;;;6.40;2.42;;;;;;;;;;5077775;28;20037;-69
2022/07/18 03:16:47;;;;;;;3.40;2.47;;;;;;;;;;5077232;28;20024;-70
2022/07/18 03:19:12;;;;;;;4.20;2.50;;;;;;;;;;5077243;28;20068;-70
2022/07/18 03:21:38;;;;;;;4.53;2.92;;;;;;;;;;5076700;28;20053;-68
2022/07/18 03:24:03;;;;;;;3.53;2.70;;;;;;;;;;5059271;28;20392;-70
2022/07/18 03:26:29;;;;;;;4.85;2.95;;;;;;;;;;5077323;28;20021;-69
2022/07/18 03:28:55;;;;;;;4.15;3.05;;;;;;;;;;5076816;28;20437;-70
2022/07/18 03:31:20;;;;;;;4.10;2.92;;;;;;;;;;5076945;28;20085;-69
2022/07/18 03:33:45;;;;;;;3.85;2.42;;;;;;;;;;5059496;28;20029;-70
2022/07/18 03:36:11;;;;;;;4.18;2.55;;;;;;;;;;5058792;28;20052;-71
2022/07/18 03:38:36;;;;;;;5.10;2.70;;;;;;;;;;5059390;28;20034;-71
2022/07/18 03:41:03;;;;;;;3.97;2.65;;;;;;;;;;5076970;28;20032;-70
2022/07/18 03:43:29;;;;;;;5.57;2.88;;;;;;;;;;5076803;28;20035;-70
2022/07/18 03:45:54;;;;;;;4.93;2.42;;;;;;;;;;5076548;28;20099;-70
2022/07/18 03:48:20;;;;;;;5.70;2.67;;;;;;;;;;5076456;28;20021;-76
2022/07/18 03:50:45;;;;;;;3.42;2.47;;;;;;;;;;5058470;28;20417;-68
2022/07/18 03:53:11;;;;;;;3.97;2.45;;;;;;;;;;5076359;28;20536;-68
2022/07/18 03:55:37;;;;;;;3.55;2.22;;;;;;;;;;5058449;28;20020;-69
2022/07/18 03:58:02;;;;;;;5.53;2.67;;;;;;;;;;5076590;28;20020;-68
2022/07/18 04:00:28;;;;;;;4.75;2.70;;;;;;;;;;5076129;28;20017;-68
2022/07/18 04:02:53;;;;;;;5.07;2.50;;;;;;;;;;5076283;28;20040;-68
2022/07/18 04:05:18;;;;;;;3.42;2.47;;;;;;;;;;5058161;28;20476;-68
2022/07/18 04:07:44;;;;;;;4.03;2.10;;;;;;;;;;5075831;28;20020;-68
2022/07/18 04:10:10;;;;;;;4.68;2.13;;;;;;;;;;5076074;28;20028;-68
2022/07/18 04:12:43;;;;;;;3.40;2.42;;;;;;;;;;5058047;28;20052;-68
2022/07/18 04:15:09;;;;;;;4.72;2.53;;;;;;;;;;5076131;28;20032;-68
2022/07/18 04:17:34;;;;;;;4.82;3.13;;;;;;;;;;5075947;28;20027;-68
2022/07/18 04:20:00;;;;;;;4.97;3.63;;;;;;;;;;5075831;28;20032;-68
2022/07/18 04:22:25;;;;;;;9.93;6.18;;;;;;;;;;5075931;28;20094;-68
2022/07/18 04:24:51;;;;;;;15.55;8.85;;;;;;;;;;5076097;28;20021;-68
2022/07/18 04:27:16;;;;;;;12.98;8.02;;;;;;;;;;5075058;28;20468;-68
2022/07/18 04:29:42;;;;;;;14.77;8.13;;;;;;;;;;5074379;28;20036;-68
2022/07/18 04:32:07;;;;;;;8.05;5.20;;;;;;;;;;5074872;28;20025;-68
2022/07/18 04:34:33;;;;;;;6.13;4.32;;;;;;;;;;5056838;28;20033;-68
2022/07/18 04:36:58;;;;;;;6.75;4.50;;;;;;;;;;5074211;28;20024;-68
2022/07/18 04:39:23;;;;;;;8.32;4.32;;;;;;;;;;5056125;28;20146;-68
2022/07/18 04:41:49;;;;;;;5.30;3.92;;;;;;;;;;5074345;28;20091;-68
2022/07/18 04:44:14;;;;;;;7.50;4.60;;;;;;;;;;5074680;28;20021;-69
2022/07/18 04:46:39;;;;;;;7.07;4.50;;;;;;;;;;5074824;28;20025;-77
2022/07/18 04:49:05;;;;;;;4.72;3.90;;;;;;;;;;5074613;28;20033;-78
2022/07/18 04:51:30;;;;;;;7.43;4.57;;;;;;;;;;5074269;28;20024;-78
2022/07/18 04:53:56;;;;;;;9.35;6.13;;;;;;;;;;5074312;28;20078;-78
2022/07/18 04:56:21;;;;;;;7.03;4.75;;;;;;;;;;5074235;28;20471;-78
2022/07/18 04:58:47;;;;;;;7.10;3.50;;;;;;;;;;5074052;28;20111;-78
2022/07/18 05:01:13;;;;;;;5.22;3.38;;;;;;;;;;5073964;28;20103;-78
2022/07/18 05:03:38;;;;;;;6.00;3.10;;;;;;;;;;5073901;28;20052;-78
2022/07/18 05:06:04;;;;;;;3.95;3.40;;;;;;;;;;5073915;28;20523;-78
2022/07/18 05:08:29;;;;;;;3.45;3.15;;;;;;;;;;5056036;28;20032;-78
2022/07/18 05:10:54;;;;;;;4.70;3.15;;;;;;;;;;5073883;28;20020;-78
2022/07/18 05:13:20;;;;;;;6.43;3.08;;;;;;;;;;5073811;28;20472;-77
2022/07/18 05:15:45;;;;;;;4.50;3.13;;;;;;;;;;5073678;28;20349;-78
2022/07/18 05:18:11;;;;;;;5.82;3.33;;;;;;;;;;5055293;28;20043;-78
2022/07/18 05:20:36;;;;;;;6.85;3.47;;;;;;;;;;5073597;28;20090;-79
2022/07/18 05:23:02;;;;;;;4.15;3.20;;;;;;;;;;5073367;28;20051;-78
2022/07/18 05:25:27;;;;;;;4.85;3.22;;;;;;;;;;5074352;28;20029;-77
2022/07/18 05:27:53;;;;;;;5.57;3.25;;;;;;;;;;5074021;28;20021;-78
2022/07/18 05:30:19;;;;;;;5.28;2.85;;;;;;;;;;5074682;28;20024;-78
2022/07/18 05:32:44;;;;;;;4.80;3.40;;;;;;;;;;5056205;28;20039;-78
2022/07/18 05:35:10;;;;;;;4.45;3.22;;;;;;;;;;5074523;28;20439;-78
2022/07/18 05:37:37;;;;;;;6.55;3.40;;;;;;;;;;5074342;28;20736;-78
2022/07/18 05:40:06;;;;;;;6.95;3.65;;;;;;;;;;5073467;28;20028;-78
2022/07/18 05:42:32;;;;;;;4.28;3.03;;;;;;;;;;5073212;28;20032;-78
2022/07/18 05:44:57;;;;;;;5.60;3.72;;;;;;;;;;5073973;28;20372;-77
2022/07/18 05:47:23;;;;;;;5.07;3.47;;;;;;;;;;5074147;28;20032;-77
2022/07/18 05:49:48;;;;;;;7.05;3.53;;;;;;;;;;5074402;28;20021;-77
2022/07/18 05:52:13;;;;;;;5.15;3.63;;;;;;;;;;5056221;28;20062;-77
2022/07/18 05:54:39;;;;;;;7.00;4.05;;;;;;;;;;5073797;28;20436;-77
2022/07/18 05:57:04;;;;;;;7.43;3.72;;;;;;;;;;5073484;28;20116;-77
2022/07/18 05:59:30;;;;;;;8.35;3.72;;;;;;;;;;5055659;28;20024;-78
2022/07/18 06:01:55;;;;;;;5.50;3.17;;;;;;;;;;5073738;28;20075;-77
2022/07/18 06:04:22;;;;;;;7.18;3.35;;;;;;;;;;5055911;28;20028;-77
2022/07/18 06:06:49;;;;;;;9.88;3.63;;;;;;;;;;5073574;28;20464;-77
2022/07/18 06:09:16;;;;;;;7.45;4.07;;;;;;;;;;5073272;28;20012;-77
2022/07/18 06:11:41;;;;;;;8.27;4.50;;;;;;;;;;5071837;28;20020;-77
2022/07/18 06:14:07;;;;;;;8.85;4.50;;;;;;;;;;5055102;28;20020;-77
2022/07/18 06:16:32;;;;;;;9.15;4.63;;;;;;;;;;5073084;28;20052;-77
2022/07/18 06:18:58;;;;;;;7.18;4.40;;;;;;;;;;5072971;28;20056;-77
2022/07/18 06:21:23;;;;;;;6.45;4.63;;;;;;;;;;5054758;28;20032;-77
2022/07/18 06:23:49;;;;;;;8.63;4.22;;;;;;;;;;5073267;28;20099;-77
2022/07/18 06:26:15;;;;;;;7.57;3.67;;;;;;;;;;5073583;28;20029;-77
2022/07/18 06:28:40;;;;;;;6.20;3.88;;;;;;;;;;5073934;28;20016;-77
2022/07/18 06:31:06;;;;;;;4.47;3.25;;;;;;;;;;5073237;28;20029;-77
2022/07/18 06:33:31;;;;;;;5.32;3.88;;;;;;;;;;5073859;28;20100;-77
2022/07/18 06:35:57;;;;;;;4.07;3.30;;;;;;;;;;5073817;28;20465;-77
2022/07/18 06:38:23;;;;;;;7.90;3.78;;;;;;;;;;5073819;28;20031;-68
2022/07/18 06:40:48;;;;;;;5.68;3.30;;;;;;;;;;5073393;28;20028;-68
2022/07/18 06:43:19;;;;;;;5.00;3.13;;;;;;;;;;5074056;28;20040;-68
2022/07/18 06:45:47;;;;;;;5.30;2.95;;;;;;;;;;5073484;28;20460;-68
2022/07/18 06:48:17;;;;;;;6.70;3.03;;;;;;;;;;5073427;28;20054;-68
2022/07/18 06:50:43;;;;;;;7.15;3.65;;;;;;;;;;5055859;28;20040;-68
2022/07/18 06:53:09;;;;;;;8.90;6.22;;;;;;;;;;5055792;28;20081;-68
2022/07/18 06:55:34;;;;;;;4.53;3.10;;;;;;;;;;5055376;28;20029;-68
2022/07/18 06:58:00;;;;;;;5.25;3.35;;;;;;;;;;5073659;28;20375;-68
2022/07/18 07:00:26;;;;;;;7.20;3.78;;;;;;;;;;5073477;28;20036;-68
2022/07/18 07:02:51;;;;;;;5.35;2.85;;;;;;;;;;5073598;28;20020;-68
2022/07/18 07:05:18;;;;;;;7.93;3.20;;;;;;;;;;5073564;28;20035;-68
2022/07/18 07:07:43;;;;;;;7.15;3.65;;;;;;;;;;5073250;28;20016;-68
2022/07/18 07:10:09;;;;;;;4.97;3.00;;;;;;;;;;5073203;28;20035;-68
2022/07/18 07:12:38;;;;;;;4.85;2.33;;;;;;;;;;5073479;28;20098;-68
2022/07/18 07:15:04;;;;;;;4.55;2.38;;;;;;;;;;5073454;28;20085;-68
2022/07/18 07:17:29;;;;;;;6.47;2.80;;;;;;;;;;5073149;28;20021;-68
2022/07/18 07:19:55;;;;;;;2.60;2.15;;;;;;;;;;5073281;28;20033;-68
2022/07/18 07:22:20;;;;;;;3.38;2.25;;;;;;;;;;5072927;28;20067;-68
2022/07/18 07:24:45;;;;;;;4.10;2.55;;;;;;;;;;5073073;28;20037;-68
2022/07/18 07:27:11;;;;;;;4.45;2.53;;;;;;;;;;5073337;28;20028;-68
2022/07/18 07:29:37;;;;;;;5.35;2.17;;;;;;;;;;5072982;28;20032;-68
2022/07/18 07:32:02;;;;;;;1.73;1.63;;;;;;;;;;5073041;28;20028;-68
2022/07/18 07:34:30;;;;;;;3.03;2.38;;;;;;;;;;5073300;28;20031;-68
2022/07/18 07:36:55;;;;;;;3.75;2.60;;;;;;;;;;5073533;28;20055;-68
2022/07/18 07:39:20;;;;;;;3.25;1.98;;;;;;;;;;5055363;28;20068;-68
2022/07/18 07:41:46;;;;;;;3.88;2.05;;;;;;;;;;5074858;28;20024;-68
2022/07/18 07:44:11;;;;;;;2.25;1.63;;;;;;;;;;5076848;28;20029;-68
2022/07/18 07:46:37;;;;;;;2.83;1.88;;;;;;;;;;5076571;28;20476;-68
2022/07/18 07:49:03;;;;;;;3.90;1.85;;;;;;;;;;5076699;28;20020;-68
2022/07/18 07:51:28;;;;;;;3.03;1.60;;;;;;;;;;5076475;28;20025;-68
2022/07/18 07:53:54;;;;;;;4.57;2.00;;;;;;;;;;5058474;28;20048;-68
2022/07/18 07:56:19;;;;;;;3.90;1.80;;;;;;;;;;5076918;28;20024;-68
2022/07/18 07:58:45;;;;;;;2.13;1.50;;;;;;;;;;5076329;28;20040;-68
2022/07/18 08:01:11;;;;;;;5.47;1.80;;;;;;;;;;5076245;28;20109;-68
2022/07/18 08:03:37;;;;;;;2.70;1.35;;;;;;;;;;5058437;28;20052;-68
2022/07/18 08:06:03;;;;;;;2.15;1.35;;;;;;;;;;5058243;28;20456;-68
2022/07/18 08:08:28;;;;;;;2.55;1.33;;;;;;;;;;5076215;28;20025;-68
2022/07/18 08:10:53;;;;;;;2.80;1.40;;;;;;;;;;5076384;28;20372;-68
2022/07/18 08:13:20;;;;;;;1.63;1.30;;;;;;;;;;5076614;28;20115;-68
2022/07/18 08:15:45;;;;;;;6.55;2.50;;;;;;;;;;5076018;28;20357;-68
2022/07/18 08:18:10;;;;;;;1.63;1.38;;;;;;;;;;5075983;28;20036;-68
2022/07/18 08:20:36;;;;;;;2.90;1.17;;;;;;;;;;5076158;28;20027;-68
2022/07/18 08:23:05;;;;;;;1.92;1.10;;;;;;;;;;5075656;28;20399;-68
2022/07/18 08:25:31;;;;;;;1.50;1.10;;;;;;;;;;5076175;28;20447;-68
2022/07/18 08:27:57;;;;;;;2.13;1.30;;;;;;;;;;5076060;28;20033;-68
2022/07/18 08:30:23;;;;;;;2.83;1.60;;;;;;;;;;5076309;28;20131;-68
2022/07/18 08:32:49;;;;;;;1.40;1.15;;;;;;;;;;5076000;28;20032;-68
2022/07/18 08:35:14;;;;;;;1.38;1.20;;;;;;;;;;5057779;28;20017;-68
2022/07/18 08:37:40;;;;;;;2.17;1.02;;;;;;;;;;5075845;28;20077;-68
2022/07/18 08:40:05;;;;;;;1.67;1.13;;;;;;;;;;5075476;28;20032;-68
2022/07/18 08:42:32;;;;;;;1.42;1.23;;;;;;;;;;5076067;28;20036;-68
2022/07/18 08:44:58;;;;;;;3.30;1.83;;;;;;;;;;5057534;28;20055;-68
2022/07/18 08:47:25;;;;;;;1.40;1.08;;;;;;;;;;5057555;28;20056;-68
2022/07/18 08:49:52;;;;;;;1.40;1.25;;;;;;;;;;5075652;28;20032;-68
2022/07/18 08:52:19;;;;;;;2.20;1.23;;;;;;;;;;5075113;28;20021;-68
2022/07/18 08:54:44;;;;;;;2.00;1.30;;;;;;;;;;5074844;28;20109;-68
2022/07/18 08:57:09;;;;;;;1.80;1.27;;;;;;;;;;5057409;28;20627;-68
2022/07/18 08:59:35;;;;;;;4.07;1.15;;;;;;;;;;5075100;28;20479;-68
2022/07/18 09:02:00;;;;;;;1.15;1.13;;;;;;;;;;5075431;28;20107;-68
2022/07/18 09:04:35;;;;;;;2.50;1.33;;;;;;;;;;5075652;28;20031;-68
2022/07/18 09:07:01;;;;;;;2.83;1.25;;;;;;;;;;5075875;28;20112;-68
2022/07/18 09:09:26;;;;;;;3.17;1.15;;;;;;;;;;5075016;28;20440;-68
2022/07/18 09:12:03;;;;;;;2.42;1.13;;;;;;;;;;5057002;28;20036;-68
2022/07/18 09:14:29;;;;;;;2.33;1.25;;;;;;;;;;5075155;28;20116;-68
2022/07/18 09:17:05;;;;;;;2.08;1.27;;;;;;;;;;5056911;28;20052;-68
2022/07/18 09:19:31;;;;;;;1.65;1.17;;;;;;;;;;5057412;28;20423;-68
2022/07/18 09:22:19;;;;;;;1.52;0.85;;;;;;;;;;5074508;28;20040;-68
2022/07/18 09:24:58;;;;;;;1.20;1.10;;;;;;;;;;5064064;28;20090;-68
2022/07/18 09:27:24;;;;;;;3.35;1.38;;;;;;;;;;5056653;28;20059;-68
2022/07/18 09:30:12;;;;;;;2.13;1.17;;;;;;;;;;5074602;28;20055;-68
2022/07/18 09:32:38;;;;;;;1.77;1.40;;;;;;;;;;5060713;28;20091;-68
2022/07/18 09:35:11;;;;;;;2.70;1.20;;;;;;;;;;5056917;28;20472;-68
2022/07/18 09:37:36;;;;;;;1.02;0.93;;;;;;;;;;5074959;28;20024;-68
2022/07/18 09:40:15;;;;;;;2.80;1.20;;;;;;;;;;5074255;28;20103;-68
2022/07/18 09:42:41;;;;;;;1.20;1.10;;;;;;;;;;5074619;28;20028;-68
2022/07/18 09:45:07;;;;;;;1.23;1.02;;;;;;;;;;5056304;28;20513;-68
2022/07/18 09:47:47;;;;;;;2.85;1.08;;;;;;;;;;5074233;28;20020;-68
2022/07/18 09:50:21;;;;;;;2.72;1.50;;;;;;;;;;5074455;28;20024;-68
2022/07/18 09:52:55;;;;;;;2.00;1.27;;;;;;;;;;5056403;28;20028;-68
2022/07/18 09:55:20;;;;;;;2.38;0.98;;;;;;;;;;5056152;28;20033;-68
2022/07/18 09:57:55;;;;;;;1.67;1.02;;;;;;;;;;5074317;28;20029;-68
2022/07/18 10:00:21;;;;;;;2.40;0.88;;;;;;;;;;5074196;28;20115;-68
2022/07/18 10:02:53;;;;;;;3.22;1.40;;;;;;;;;;5056108;28;20143;-68
2022/07/18 10:05:19;;;;;;;1.50;1.40;;;;;;;;;;5056427;28;20035;-68
2022/07/18 10:07:45;;;;;;;3.50;1.50;;;;;;;;;;5073910;28;20054;-68
2022/07/18 10:10:13;;;;;;;1.75;1.25;;;;;;;;;;5074196;28;20033;-68
2022/07/18 10:12:39;;;;;;;2.45;1.20;;;;;;;;;;5074168;28;20028;-68
2022/07/18 10:15:05;;;;;;;2.63;1.35;;;;;;;;;;5073798;28;20089;-68
2022/07/18 10:17:30;;;;;;;3.95;1.35;;;;;;;;;;5074360;28;20020;-68
2022/07/18 10:20:02;;;;;;;1.13;1.02;;;;;;;;;;5074224;28;20496;-68
2022/07/18 10:22:27;;;;;;;3.38;1.20;;;;;;;;;;5073616;28;20082;-68
2022/07/18 10:24:53;;;;;;;2.25;1.05;;;;;;;;;;5073945;28;20025;-68
2022/07/18 10:27:19;;;;;;;2.30;1.35;;;;;;;;;;5073946;28;20025;-68
2022/07/18 10:30:03;;;;;;;3.58;1.35;;;;;;;;;;5073678;28;20384;-68
2022/07/18 10:32:35;;;;;;;1.55;1.13;;;;;;;;;;5073617;28;20024;-68
2022/07/18 10:35:01;;;;;;;1.73;0.93;;;;;;;;;;5074128;28;20050;-68
2022/07/18 10:37:30;;;;;;;1.92;1.17;;;;;;;;;;5074129;28;20107;-68
2022/07/18 10:40:16;;;;;;;1.17;1.00;;;;;;;;;;5073468;28;20419;-68
2022/07/18 10:42:41;;;;;;;2.88;1.30;;;;;;;;;;5073925;28;20029;-68
2022/07/18 10:45:27;;;;;;;3.92;1.30;;;;;;;;;;5073502;28;20513;-68
2022/07/18 10:47:53;;;;;;;2.95;1.40;;;;;;;;;;5074016;28;20048;-68
2022/07/18 10:50:18;;;;;;;1.67;1.05;;;;;;;;;;5055547;28;20024;-68
2022/07/18 10:52:50;;;;;;;1.00;0.98;;;;;;;;;;5073406;28;20505;-68
2022/07/18 10:55:21;;;;;;;1.92;1.10;;;;;;;;;;5073907;28;20033;-68
2022/07/18 10:57:50;;;;;;;2.95;1.10;;;;;;;;;;5055400;28;20032;-68
2022/07/18 11:00:16;;;;;;;1.17;1.00;;;;;;;;;;5073551;28;20021;-68
2022/07/18 11:02:44;;;;;;;1.95;1.30;;;;;;;;;;5073635;28;20170;-68
2022/07/18 11:05:31;;;;;;;4.47;1.50;;;;;;;;;;5073567;28;20028;-68
2022/07/18 11:07:57;;;;;;;2.33;1.13;;;;;;;;;;5073279;28;20028;-68
2022/07/18 11:10:43;;;;;;;1.73;1.00;;;;;;;;;;5073242;28;20384;-68
2022/07/18 11:13:24;;;;;;;1.58;1.17;;;;;;;;;;5059602;28;20040;-68
2022/07/18 11:15:49;;;;;;;;;;;;;;;;;;5074158;28;20059;-68
2022/07/18 11:18:15;;;;;;;2.97;1.10;;;;;;;;;;5077124;28;19927;-68
2022/07/18 11:20:41;;;;;;;2.33;1.30;;;;;;;;;;5077522;28;20645;-68
2022/07/18 11:23:17;;;;;;;1.20;1.00;;;;;;;;;;5076837;28;20048;-68
2022/07/18 11:25:43;;;;;;;1.25;1.08;;;;;;;;;;5077203;28;20029;-68
2022/07/18 11:28:09;;;;;;;1.52;1.17;;;;;;;;;;5077484;28;20408;-68
2022/07/18 11:30:35;;;;;;;1.15;0.93;;;;;;;;;;5058855;28;20400;-68
2022/07/18 11:33:00;;;;;;;2.47;1.00;;;;;;;;;;5058908;28;20029;-68
2022/07/18 11:35:26;;;;;;;1.33;0.85;;;;;;;;;;5077274;28;20032;-68
2022/07/18 11:37:52;;;;;;;2.08;1.40;;;;;;;;;;5058901;28;20056;-68
2022/07/18 11:40:19;;;;;;;3.05;1.00;;;;;;;;;;5058844;28;20032;-68
2022/07/18 11:42:44;;;;;;;1.23;0.93;;;;;;;;;;5076935;28;20012;-68
2022/07/18 11:45:12;;;;;;;1.45;1.10;;;;;;;;;;5076625;28;20357;-68
2022/07/18 11:47:38;;;;;;;1.30;1.02;;;;;;;;;;5076572;28;20028;-68
2022/07/18 11:50:04;;;;;;;1.00;1.00;;;;;;;;;;5076743;28;20067;-67
2022/07/18 11:52:32;;;;;;;1.52;1.20;;;;;;;;;;5058853;28;20056;-68
2022/07/18 11:55:00;;;;;;;3.17;1.25;;;;;;;;;;5058508;28;20024;-68
2022/07/18 11:57:29;;;;;;;3.80;0.98;;;;;;;;;;5076659;28;20013;-68
2022/07/18 11:59:54;;;;;;;1.13;1.02;;;;;;;;;;5076552;28;20032;-68
2022/07/18 12:02:38;;;;;;;1.30;1.15;;;;;;;;;;5076324;28;20520;-68
2022/07/18 12:05:32;;;;;;;1.90;1.08;;;;;;;;;;5076491;28;20499;-68
2022/07/18 12:07:58;;;;;;;1.02;0.93;;;;;;;;;;5058883;28;20028;-68
2022/07/18 12:10:24;;;;;;;1.63;0.82;;;;;;;;;;5076148;28;20020;-68
2022/07/18 12:12:49;;;;;;;2.80;1.05;;;;;;;;;;5076389;28;20041;-67
2022/07/18 12:15:14;;;;;;;1.10;1.00;;;;;;;;;;5076377;28;20017;-68
2022/07/18 12:17:45;;;;;;;2.75;1.20;;;;;;;;;;5076016;28;20039;-67
2022/07/18 12:20:10;;;;;;;2.08;1.17;;;;;;;;;;5076479;28;20379;-68
2022/07/18 12:22:35;;;;;;;2.03;1.33;;;;;;;;;;5075900;28;20040;-68
2022/07/18 12:25:02;;;;;;;6.07;1.70;;;;;;;;;;5057906;28;20024;-68
2022/07/18 12:27:35;;;;;;;11.18;2.70;;;;;;;;;;5076082;28;20016;-68
2022/07/18 12:30:03;;;;;;;13.20;3.05;;;;;;;;;;5076052;28;20033;-68
2022/07/18 12:32:39;;;;;;;5.60;2.25;;;;;;;;;;5057930;28;20024;-68
2022/07/18 12:35:06;;;;;;;10.68;3.17;;;;;;;;;;5075995;28;20090;-68
2022/07/18 12:37:31;;;;;;;10.23;2.15;;;;;;;;;;5057655;28;20060;-68
2022/07/18 12:39:58;;;;;;;5.93;1.92;;;;;;;;;;5075491;28;20032;-68
2022/07/18 12:42:30;;;;;;;1.30;1.20;;;;;;;;;;5075860;28;20012;-68
2022/07/18 12:44:56;;;;;;;1.27;1.15;;;;;;;;;;5057933;28;20032;-68
2022/07/18 12:47:21;;;;;;;2.45;1.00;;;;;;;;;;5075481;28;20039;-68
2022/07/18 12:49:47;;;;;;;1.75;1.20;;;;;;;;;;5075665;28;20021;-68
2022/07/18 12:52:12;;;;;;;2.80;1.38;;;;;;;;;;5075342;28;20372;-68
2022/07/18 12:54:38;;;;;;;3.63;1.73;;;;;;;;;;5075008;28;20024;-68
2022/07/18 12:57:03;;;;;;;1.85;1.15;;;;;;;;;;5074756;28;20024;-68
2022/07/18 12:59:28;;;;;;;2.45;1.27;;;;;;;;;;5074676;28;20109;-68
2022/07/18 13:01:54;;;;;;;3.08;1.58;;;;;;;;;;5074285;28;20021;-68
2022/07/18 13:04:19;;;;;;;1.77;1.20;;;;;;;;;;5056920;28;20098;-68
2022/07/18 13:06:45;;;;;;;1.27;1.17;;;;;;;;;;5052741;28;20107;-68
2022/07/18 13:09:10;;;;;;;1.58;1.13;;;;;;;;;;5053255;28;20020;-68
2022/07/18 13:11:37;;;;;;;1.92;0.77;;;;;;;;;;5072637;28;20021;-68
2022/07/18 13:14:02;;;;;;;2.35;1.00;;;;;;;;;;5070117;28;20097;-68
2022/07/18 13:16:28;;;;;;;1.60;1.02;;;;;;;;;;5071425;28;20021;-68
2022/07/18 13:18:53;;;;;;;2.17;1.23;;;;;;;;;;5073344;28;20115;-68
2022/07/18 13:21:19;;;;;;;1.92;1.25;;;;;;;;;;5055353;28;20021;-69
2022/07/18 13:23:44;;;;;;;1.23;1.13;;;;;;;;;;5073288;28;20533;-68
2022/07/18 13:26:10;;;;;;;5.97;1.55;;;;;;;;;;5055514;28;20024;-68
2022/07/18 13:28:35;;;;;;;1.30;1.08;;;;;;;;;;5073450;28;20120;-69
2022/07/18 13:31:02;;;;;;;1.70;1.23;;;;;;;;;;5073505;28;20025;-68
2022/07/18 13:33:28;;;;;;;6.57;1.40;;;;;;;;;;5073463;28;20460;-68
2022/07/18 13:35:55;;;;;;;1.75;1.13;;;;;;;;;;5072903;28;20048;-68
2022/07/18 13:38:21;;;;;;;1.83;1.10;;;;;;;;;;5073249;28;20032;-68
2022/07/18 13:40:46;;;;;;;0.90;0.90;;;;;;;;;;5073011;28;20479;-68
2022/07/18 13:43:12;;;;;;;2.47;1.10;;;;;;;;;;5073248;28;20025;-68
2022/07/18 13:45:38;;;;;;;2.65;1.10;;;;;;;;;;5073314;28;20032;-68
2022/07/18 13:48:04;;;;;;;2.83;0.93;;;;;;;;;;5073209;28;20020;-68
2022/07/18 13:50:30;;;;;;;2.88;1.02;;;;;;;;;;5073133;28;20024;-68
2022/07/18 13:52:56;;;;;;;1.30;1.08;;;;;;;;;;5055198;28;20033;-68
2022/07/18 13:55:21;;;;;;;1.95;0.90;;;;;;;;;;5073039;28;20024;-68
2022/07/18 13:57:47;;;;;;;2.10;1.05;;;;;;;;;;5055219;28;20032;-68
2022/07/18 14:00:13;;;;;;;1.08;0.98;;;;;;;;;;5072946;28;20028;-76
2022/07/18 14:02:38;;;;;;;1.30;0.85;;;;;;;;;;5072995;28;20096;-69
2022/07/18 14:05:04;;;;;;;2.35;1.00;;;;;;;;;;5072947;28;20023;-69
2022/07/18 14:07:29;;;;;;;1.48;0.90;;;;;;;;;;5072900;28;20071;-69
2022/07/18 14:09:54;;;;;;;2.95;0.90;;;;;;;;;;5055036;28;20428;-69
2022/07/18 14:12:20;;;;;;;1.48;1.00;;;;;;;;;;5054860;28;20029;-69
2022/07/18 14:14:45;;;;;;;3.63;1.10;;;;;;;;;;5072806;28;20096;-69
2022/07/18 14:17:11;;;;;;;2.42;1.00;;;;;;;;;;5072948;28;20025;-69
2022/07/18 14:19:36;;;;;;;1.23;0.93;;;;;;;;;;5074421;28;20349;-69
2022/07/18 14:22:02;;;;;;;1.52;1.08;;;;;;;;;;5073507;28;20070;-69
2022/07/18 14:24:28;;;;;;;1.10;1.10;;;;;;;;;;5074004;28;20112;-69
2022/07/18 14:26:53;;;;;;;3.30;1.38;;;;;;;;;;5073930;28;20024;-69
2022/07/18 14:29:19;;;;;;;2.95;1.23;;;;;;;;;;5055791;28;20020;-69
2022/07/18 14:31:44;;;;;;;3.40;1.15;;;;;;;;;;5073624;28;20159;-69
2022/07/18 14:34:09;;;;;;;2.85;1.45;;;;;;;;;;5073653;28;20123;-69
2022/07/18 14:36:35;;;;;;;2.47;1.20;;;;;;;;;;5073149;28;20021;-69
2022/07/18 14:39:00;;;;;;;2.20;1.63;;;;;;;;;;5073760;28;20021;-69
2022/07/18 14:41:26;;;;;;;2.53;1.35;;;;;;;;;;5073470;28;20025;-69
2022/07/18 14:43:51;;;;;;;2.28;1.45;;;;;;;;;;5073500;28;20484;-69